createdAt,value
2023-01-27T00:01:34.284Z,-1.27
2023-01-27T00:04:02.585Z,-1.30
2023-01-27T00:06:36.595Z,-1.30
2023-01-27T00:09:04.966Z,-1.31
2023-01-27T00:11:52.386Z,-1.31
2023-01-27T00:14:20.876Z,-1.33
2023-01-27T00:16:49.558Z,-1.31
2023-01-27T00:19:20.098Z,-1.30
2023-01-27T00:22:07.517Z,-1.28
2023-01-27T00:24:38.663Z,-1.29
2023-01-27T00:27:09.681Z,-1.29
2023-01-27T00:29:41.167Z,-1.29
2023-01-27T00:32:29.297Z,-1.29
2023-01-27T00:34:57.579Z,-1.30
2023-01-27T00:37:25.751Z,-1.29
2023-01-27T00:39:54.958Z,-1.23
2023-01-27T00:42:23.339Z,-1.16
2023-01-27T00:45:10.661Z,-1.13
2023-01-27T00:47:38.875Z,-1.15
2023-01-27T00:50:08.126Z,-1.17
2023-01-27T00:52:37.041Z,-1.22
2023-01-27T00:55:06.358Z,-1.24
2023-01-27T00:57:35.075Z,-1.32
2023-01-27T01:00:06.982Z,-1.41
2023-01-27T01:02:35.876Z,-1.46
2023-01-27T01:05:05.940Z,-1.51
2023-01-27T01:07:34.307Z,-1.60
2023-01-27T01:10:02.789Z,-1.64
2023-01-27T01:12:30.941Z,-1.69
2023-01-27T01:14:59.671Z,-1.68
2023-01-27T01:17:28.047Z,-1.67
2023-01-27T01:19:56.432Z,-1.67
2023-01-27T01:22:24.616Z,-1.69
2023-01-27T01:24:53.715Z,-1.71
2023-01-27T01:27:21.896Z,-1.70
2023-01-27T01:29:50.377Z,-1.67
2023-01-27T01:32:18.760Z,-1.63
2023-01-27T01:34:47.044Z,-1.59
2023-01-27T01:37:18.193Z,-1.59
2023-01-27T01:39:46.381Z,-1.60
2023-01-27T01:42:14.756Z,-1.62
2023-01-27T01:44:45.829Z,-1.66
2023-01-27T01:47:18.175Z,-1.69
2023-01-27T01:49:47.845Z,-1.74
2023-01-27T01:52:21.475Z,-1.76
2023-01-27T01:54:55.156Z,-1.74
2023-01-27T01:57:33.213Z,-1.71
2023-01-27T02:00:07.341Z,-1.65
2023-01-27T02:02:54.841Z,-1.59
2023-01-27T02:05:32.230Z,-1.59
2023-01-27T02:08:25.892Z,-1.60
2023-01-27T02:10:54.890Z,-1.57
2023-01-27T02:13:23.172Z,-1.54
2023-01-27T02:15:54.015Z,-1.56
2023-01-27T02:18:22.601Z,-1.61
2023-01-27T02:20:54.334Z,-1.65
2023-01-27T02:23:51.017Z,-1.64
2023-01-27T02:26:27.263Z,-1.64
2023-01-27T02:28:59.530Z,-1.65
2023-01-27T02:31:28.683Z,-1.70
2023-01-27T02:34:03.570Z,-1.70
2023-01-27T02:36:35.323Z,-1.69
2023-01-27T02:39:07.610Z,-1.67
2023-01-27T02:41:57.256Z,-1.71
2023-01-27T02:44:27.501Z,-1.74
2023-01-27T02:46:56.288Z,-1.76
2023-01-27T02:49:25.695Z,-1.76
2023-01-27T02:51:54.191Z,-1.78
2023-01-27T02:54:25.950Z,-1.83
2023-01-27T02:56:54.224Z,-1.83
2023-01-27T02:59:24.295Z,-1.83
2023-01-27T03:01:53.147Z,-1.84
2023-01-27T03:04:22.350Z,-1.88
2023-01-27T03:06:50.643Z,-1.90
2023-01-27T03:09:18.813Z,-1.92
2023-01-27T03:12:06.227Z,-1.96
2023-01-27T03:14:53.137Z,-1.97
2023-01-27T03:17:40.452Z,-1.99
2023-01-27T03:20:10.499Z,-2.03
2023-01-27T03:22:38.899Z,-2.05
2023-01-27T03:25:08.390Z,-2.06
2023-01-27T03:27:37.061Z,-2.06
2023-01-27T03:30:20.793Z,-2.07
2023-01-27T03:32:58.450Z,-2.10
2023-01-27T03:36:23.361Z,-2.08
2023-01-27T03:39:11.412Z,-2.06
2023-01-27T03:41:58.708Z,-2.02
2023-01-27T03:44:46.639Z,-1.95
2023-01-27T03:47:15.541Z,-1.88
2023-01-27T03:49:44.225Z,-1.84
2023-01-27T03:52:12.406Z,-1.82
2023-01-27T03:54:40.790Z,-1.79
2023-01-27T03:57:09.690Z,-1.73
2023-01-27T03:59:37.867Z,-1.68
2023-01-27T04:02:25.216Z,-1.67
2023-01-27T04:05:13.354Z,-1.66
2023-01-27T04:07:41.810Z,-1.61
2023-01-27T04:10:11.187Z,-1.54
2023-01-27T04:12:39.495Z,-1.48
2023-01-27T04:15:08.752Z,-1.47
2023-01-27T04:17:39.197Z,-1.41
2023-01-27T04:20:08.467Z,-1.35
2023-01-27T04:22:36.618Z,-1.30
2023-01-27T04:25:05.898Z,-1.28
2023-01-27T04:27:34.519Z,-1.30
2023-01-27T04:30:02.905Z,-1.28
2023-01-27T04:32:31.174Z,-1.30
2023-01-27T04:34:59.361Z,-1.29
2023-01-27T04:37:27.851Z,-1.30
2023-01-27T04:39:56.033Z,-1.34
2023-01-27T04:42:24.724Z,-1.37
2023-01-27T04:44:53.205Z,-1.39
2023-01-27T04:47:21.687Z,-1.44
2023-01-27T04:49:49.965Z,-1.51
2023-01-27T04:52:18.150Z,-1.53
2023-01-27T04:54:46.336Z,-1.53
2023-01-27T04:57:15.228Z,-1.53
2023-01-27T04:59:43.711Z,-1.51
2023-01-27T05:02:12.180Z,-1.52
2023-01-27T05:04:40.491Z,-1.56
2023-01-27T05:07:09.785Z,-1.59
2023-01-27T05:09:38.173Z,-1.61
2023-01-27T05:12:06.564Z,-1.66
2023-01-27T05:14:35.159Z,-1.69
2023-01-27T05:17:03.519Z,-1.71
2023-01-27T05:19:32.021Z,-1.75
2023-01-27T05:22:00.510Z,-1.78
2023-01-27T05:24:28.975Z,-1.79
2023-01-27T05:26:57.886Z,-1.77
2023-01-27T05:29:26.477Z,-1.76
2023-01-27T05:31:55.283Z,-1.72
2023-01-27T05:34:23.967Z,-1.69
2023-01-27T05:36:52.139Z,-1.65
2023-01-27T05:39:20.322Z,-1.58
2023-01-27T05:41:49.423Z,-1.54
2023-01-27T05:44:18.110Z,-1.47
2023-01-27T05:46:46.749Z,-1.44
2023-01-27T05:49:14.983Z,-1.43
2023-01-27T05:51:43.180Z,-1.41
2023-01-27T05:54:11.549Z,-1.43
2023-01-27T05:56:40.886Z,-1.38
2023-01-27T05:59:10.693Z,-1.32
2023-01-27T06:01:39.807Z,-1.26
2023-01-27T06:04:09.586Z,-1.17
2023-01-27T06:06:38.203Z,-1.13
2023-01-27T06:09:06.468Z,-1.06
2023-01-27T06:11:34.945Z,-0.96
2023-01-27T06:14:03.238Z,-0.87
2023-01-27T06:16:31.856Z,-0.80
2023-01-27T06:19:00.300Z,-0.77
2023-01-27T06:21:28.771Z,-0.77
2023-01-27T06:23:58.469Z,-0.76
2023-01-27T06:26:26.990Z,-0.76
2023-01-27T06:28:57.796Z,-0.78
2023-01-27T06:31:27.652Z,-0.78
2023-01-27T06:33:55.937Z,-0.80
2023-01-27T06:36:24.519Z,-0.87
2023-01-27T06:38:53.109Z,-0.90
2023-01-27T06:41:21.603Z,-0.94
2023-01-27T06:43:49.977Z,-0.95
2023-01-27T06:46:18.381Z,-0.97
2023-01-27T06:48:46.757Z,-1.05
2023-01-27T06:51:16.075Z,-1.12
2023-01-27T06:53:44.547Z,-1.14
2023-01-27T06:56:12.927Z,-1.19
2023-01-27T06:58:41.207Z,-1.24
2023-01-27T07:01:09.813Z,-1.22
2023-01-27T07:03:38.282Z,-1.22
2023-01-27T07:06:06.977Z,-1.22
2023-01-27T07:08:35.358Z,-1.20
2023-01-27T07:11:05.346Z,-1.19
2023-01-27T07:13:33.871Z,-1.16
2023-01-27T07:16:02.492Z,-1.14
2023-01-27T07:18:31.363Z,-1.11
2023-01-27T07:20:59.530Z,-1.03
2023-01-27T07:23:27.717Z,-1.00
2023-01-27T07:25:55.902Z,-0.93
2023-01-27T07:28:24.383Z,-0.88
2023-01-27T07:30:52.884Z,-0.86
2023-01-27T07:33:21.256Z,-0.85
2023-01-27T07:35:50.087Z,-0.80
2023-01-27T07:38:18.749Z,-0.72
2023-01-27T07:40:47.544Z,-0.66
2023-01-27T07:43:16.055Z,-0.64
2023-01-27T07:45:49.179Z,-0.59
2023-01-27T07:48:17.901Z,-0.50
2023-01-27T07:50:46.797Z,-0.40
2023-01-27T07:53:15.797Z,-0.35
2023-01-27T07:55:44.187Z,-0.38
2023-01-27T07:58:12.476Z,-0.39
2023-01-27T08:00:41.420Z,-0.38
2023-01-27T08:03:21.952Z,-0.41
2023-01-27T08:05:50.712Z,-0.46
2023-01-27T08:08:19.409Z,-0.47
2023-01-27T08:10:49.553Z,-0.47
2023-01-27T08:13:18.446Z,-0.46
2023-01-27T08:15:46.809Z,-0.50
2023-01-27T08:18:14.887Z,-0.52
2023-01-27T08:20:45.147Z,-0.57
2023-01-27T08:23:14.418Z,-0.61
2023-01-27T08:25:48.845Z,-0.61
2023-01-27T08:28:17.237Z,-0.61
2023-01-27T08:30:46.992Z,-0.62
2023-01-27T08:33:15.195Z,-0.58
2023-01-27T08:35:44.992Z,-0.52
2023-01-27T08:38:15.230Z,-0.49
2023-01-27T08:40:43.753Z,-0.45
2023-01-27T08:43:13.622Z,-0.44
2023-01-27T08:45:42.297Z,-0.38
2023-01-27T08:48:12.355Z,-0.34
2023-01-27T08:50:41.077Z,-0.27
2023-01-27T08:53:09.275Z,-0.20
2023-01-27T08:55:37.651Z,-0.16
2023-01-27T08:58:06.740Z,-0.18
2023-01-27T09:00:35.642Z,-0.18
2023-01-27T09:03:04.228Z,-0.16
2023-01-27T09:05:32.923Z,-0.13
2023-01-27T09:08:01.427Z,-0.12
2023-01-27T09:10:29.686Z,-0.07
2023-01-27T09:12:58.084Z,-0.05
2023-01-27T09:15:26.458Z,-0.03
2023-01-27T09:17:54.840Z,0.07
2023-01-27T09:20:23.640Z,0.15
2023-01-27T09:22:54.692Z,0.20
2023-01-27T09:25:23.523Z,0.22
2023-01-27T09:27:56.972Z,0.28
2023-01-27T09:30:26.597Z,0.31
2023-01-27T09:33:00.265Z,0.32
2023-01-27T09:35:36.469Z,0.31
2023-01-27T09:38:07.088Z,0.28
2023-01-27T09:41:08.222Z,0.29
2023-01-27T09:44:10.381Z,0.33
2023-01-27T09:46:49.300Z,0.36
2023-01-27T09:49:48.799Z,0.44
2023-01-27T09:52:46.829Z,0.48
2023-01-27T09:55:36.936Z,0.49
2023-01-27T09:58:41.546Z,0.53
2023-01-27T10:01:43.290Z,0.55
2023-01-27T10:04:27.193Z,0.52
2023-01-27T10:07:01.569Z,0.40
2023-01-27T10:09:38.843Z,0.35
2023-01-27T10:12:22.606Z,0.28
2023-01-27T10:14:56.897Z,0.23
2023-01-27T10:17:28.352Z,0.20
2023-01-27T10:20:15.171Z,0.17
2023-01-27T10:23:18.025Z,0.14
2023-01-27T10:25:55.214Z,0.09
2023-01-27T10:28:27.790Z,0.08
2023-01-27T10:31:03.552Z,0.12
2023-01-27T10:33:51.877Z,0.14
2023-01-27T10:36:30.599Z,0.17
2023-01-27T10:39:10.651Z,0.22
2023-01-27T10:41:58.483Z,0.19
2023-01-27T10:44:42.421Z,0.17
2023-01-27T10:47:16.948Z,0.20
2023-01-27T10:49:53.879Z,0.23
2023-01-27T10:52:28.135Z,0.24
2023-01-27T10:55:15.261Z,0.15
2023-01-27T10:58:10.382Z,0.12
2023-01-27T11:01:19.233Z,0.15
2023-01-27T11:03:44.071Z,0.21
2023-01-27T11:06:20.432Z,0.28
2023-01-27T11:08:54.334Z,0.29
2023-01-27T11:11:44.364Z,0.28
2023-01-27T11:14:38.544Z,0.28
2023-01-27T11:17:24.782Z,0.30
2023-01-27T11:20:13.493Z,0.28
2023-01-27T11:22:55.907Z,0.22
2023-01-27T11:25:36.489Z,0.23
2023-01-27T11:28:20.125Z,0.26
2023-01-27T11:31:02.861Z,0.27
2023-01-27T11:33:58.754Z,0.30
2023-01-27T11:36:27.335Z,0.38
2023-01-27T11:39:03.913Z,0.46
2023-01-27T11:41:40.376Z,0.45
2023-01-27T11:44:32.649Z,0.47
2023-01-27T11:47:04.782Z,0.39
2023-01-27T11:49:42.163Z,0.37
2023-01-27T11:52:14.097Z,0.33
2023-01-27T11:55:08.208Z,0.27
2023-01-27T11:57:41.571Z,0.25
2023-01-27T12:00:24.927Z,0.23
2023-01-27T12:03:04.623Z,0.20
2023-01-27T12:05:41.761Z,0.20
2023-01-27T12:08:10.243Z,0.18
2023-01-27T12:10:44.360Z,0.18
2023-01-27T12:13:19.335Z,0.17
2023-01-27T12:15:53.235Z,0.13
2023-01-27T12:18:23.833Z,0.09
2023-01-27T12:21:03.906Z,0.06
2023-01-27T12:23:47.622Z,0.06
2023-01-27T12:26:16.310Z,0.06
2023-01-27T12:28:53.495Z,0.09
2023-01-27T12:31:30.853Z,0.15
2023-01-27T12:34:19.540Z,0.15
2023-01-27T12:36:48.409Z,0.10
2023-01-27T12:39:46.282Z,0.07
2023-01-27T12:42:37.418Z,0.02
2023-01-27T12:45:32.176Z,-0.02
2023-01-27T12:48:13.974Z,0.03
2023-01-27T12:50:53.085Z,0.04
2023-01-27T12:53:28.249Z,0.03
2023-01-27T12:56:14.323Z,-0.01
2023-01-27T12:59:00.417Z,0.00
2023-01-27T13:01:37.600Z,0.02
2023-01-27T13:04:22.038Z,0.00
2023-01-27T13:07:16.506Z,0.01
2023-01-27T13:09:53.409Z,0.01
2023-01-27T13:12:29.979Z,0.02
2023-01-27T13:15:31.823Z,0.03
2023-01-27T13:18:12.394Z,0.04
2023-01-27T13:20:48.854Z,0.05
2023-01-27T13:23:27.880Z,0.02
2023-01-27T13:26:05.374Z,-0.02
2023-01-27T13:28:52.703Z,-0.02
2023-01-27T13:31:24.827Z,-0.02
2023-01-27T13:34:15.766Z,-0.03
2023-01-27T13:36:48.299Z,-0.05
2023-01-27T13:39:43.325Z,-0.08
2023-01-27T13:42:51.626Z,-0.12
2023-01-27T13:45:29.014Z,-0.13
2023-01-27T13:48:02.514Z,-0.16
2023-01-27T13:50:37.547Z,-0.19
2023-01-27T13:53:06.449Z,-0.22
2023-01-27T13:55:34.624Z,-0.26
2023-01-27T13:58:30.641Z,-0.26
2023-01-27T14:01:24.432Z,-0.25
2023-01-27T14:04:11.619Z,-0.27
2023-01-27T14:06:53.962Z,-0.25
2023-01-27T14:09:47.390Z,-0.27
2023-01-27T14:12:24.472Z,-0.25
2023-01-27T14:15:03.568Z,-0.25
2023-01-27T14:18:04.308Z,-0.21
2023-01-27T14:20:50.910Z,-0.21
2023-01-27T14:23:47.129Z,-0.18
2023-01-27T14:26:18.491Z,-0.20
2023-01-27T14:29:08.363Z,-0.23
2023-01-27T14:32:12.048Z,-0.23
2023-01-27T14:35:01.719Z,-0.27
2023-01-27T14:37:35.864Z,-0.29
2023-01-27T14:40:03.909Z,-0.33
2023-01-27T14:42:57.874Z,-0.36
2023-01-27T14:45:33.632Z,-0.42
2023-01-27T14:48:47.246Z,-0.45
2023-01-27T14:51:30.365Z,-0.48
2023-01-27T14:54:43.369Z,-0.45
2023-01-27T14:57:40.507Z,-0.47
2023-01-27T15:00:17.794Z,-0.50
2023-01-27T15:03:17.187Z,-0.53
2023-01-27T15:06:01.229Z,-0.52
2023-01-27T15:08:53.965Z,-0.51
2023-01-27T15:11:54.996Z,-0.51
2023-01-27T15:14:32.793Z,-0.53
2023-01-27T15:17:19.193Z,-0.53
2023-01-27T15:20:02.843Z,-0.51
2023-01-27T15:22:40.224Z,-0.53
2023-01-27T15:25:19.889Z,-0.54
2023-01-27T15:27:53.568Z,-0.55
2023-01-27T15:30:26.717Z,-0.58
2023-01-27T15:32:55.552Z,-0.61
2023-01-27T15:35:28.342Z,-0.60
2023-01-27T15:38:01.295Z,-0.64
2023-01-27T15:40:30.327Z,-0.67
2023-01-27T15:43:00.651Z,-0.67
2023-01-27T15:45:43.722Z,-0.72
2023-01-27T15:48:17.995Z,-0.76
2023-01-27T15:51:07.171Z,-0.79
2023-01-27T15:53:41.970Z,-0.79
2023-01-27T15:56:10.925Z,-0.81
2023-01-27T15:58:43.254Z,-0.85
2023-01-27T16:01:33.530Z,-0.86
2023-01-27T16:04:13.904Z,-0.85
2023-01-27T16:06:49.472Z,-0.84
2023-01-27T16:09:35.853Z,-0.87
2023-01-27T16:12:36.360Z,-0.93
2023-01-27T16:15:23.889Z,-0.96
2023-01-27T16:17:57.884Z,-1.01
2023-01-27T16:20:33.009Z,-1.04
2023-01-27T16:23:17.166Z,-1.04
2023-01-27T16:25:46.580Z,-1.06
2023-01-27T16:28:21.406Z,-1.06
2023-01-27T16:31:11.186Z,-1.10
2023-01-27T16:33:44.513Z,-1.10
2023-01-27T16:36:24.670Z,-1.08
2023-01-27T16:38:54.550Z,-1.06
2023-01-27T16:41:32.963Z,-1.06
2023-01-27T16:44:16.494Z,-1.08
2023-01-27T16:46:58.355Z,-1.08
2023-01-27T16:49:40.811Z,-1.08
2023-01-27T16:52:18.955Z,-1.05
2023-01-27T16:54:52.723Z,-1.03
2023-01-27T16:57:29.378Z,-1.01
2023-01-27T17:00:00.647Z,-1.01
2023-01-27T17:02:32.398Z,-1.02
2023-01-27T17:05:04.565Z,-1.02
2023-01-27T17:07:32.955Z,-1.02
2023-01-27T17:10:18.911Z,-1.07
2023-01-27T17:12:52.659Z,-1.09
2023-01-27T17:15:38.157Z,-1.12
2023-01-27T17:18:11.492Z,-1.12
2023-01-27T17:20:42.928Z,-1.14
2023-01-27T17:23:29.315Z,-1.18
2023-01-27T17:25:57.909Z,-1.20
2023-01-27T17:28:28.574Z,-1.21
2023-01-27T17:31:06.363Z,-1.22
2023-01-27T17:33:37.982Z,-1.24
2023-01-27T17:36:13.148Z,-1.25
2023-01-27T17:38:50.609Z,-1.22
2023-01-27T17:41:28.673Z,-1.23
2023-01-27T17:44:01.592Z,-1.27
2023-01-27T17:46:33.325Z,-1.31
2023-01-27T17:49:06.113Z,-1.31
2023-01-27T17:51:36.949Z,-1.29
2023-01-27T17:54:19.456Z,-1.29
2023-01-27T17:56:51.430Z,-1.29
2023-01-27T17:59:22.255Z,-1.29
2023-01-27T18:01:54.126Z,-1.29
2023-01-27T18:04:24.357Z,-1.28
2023-01-27T18:06:53.043Z,-1.25
2023-01-27T18:09:27.092Z,-1.25
2023-01-27T18:12:02.091Z,-1.21
2023-01-27T18:14:35.191Z,-1.21
2023-01-27T18:17:05.104Z,-1.21
2023-01-27T18:19:34.417Z,-1.22
2023-01-27T18:22:16.584Z,-1.27
2023-01-27T18:25:01.692Z,-1.31
2023-01-27T18:27:33.729Z,-1.33
2023-01-27T18:30:10.720Z,-1.34
2023-01-27T18:32:41.576Z,-1.38
2023-01-27T18:35:28.978Z,-1.40
2023-01-27T18:38:02.995Z,-1.39
2023-01-27T18:40:37.320Z,-1.40
2023-01-27T18:43:06.124Z,-1.42
2023-01-27T18:45:34.501Z,-1.43
2023-01-27T18:48:04.007Z,-1.43
2023-01-27T18:50:41.495Z,-1.42
2023-01-27T18:53:20.742Z,-1.42
2023-01-27T18:55:49.046Z,-1.40
2023-01-27T18:58:18.313Z,-1.41
2023-01-27T19:00:50.401Z,-1.43
2023-01-27T19:03:23.347Z,-1.44
2023-01-27T19:05:51.755Z,-1.44
2023-01-27T19:08:22.978Z,-1.40
2023-01-27T19:10:51.887Z,-1.36
2023-01-27T19:13:20.713Z,-1.30
2023-01-27T19:15:55.067Z,-1.27
2023-01-27T19:18:34.769Z,-1.24
2023-01-27T19:21:03.555Z,-1.22
2023-01-27T19:23:32.992Z,-1.21
2023-01-27T19:26:05.339Z,-1.18
2023-01-27T19:28:38.117Z,-1.15
2023-01-27T19:31:07.860Z,-1.13
2023-01-27T19:33:39.397Z,-1.11
2023-01-27T19:36:16.375Z,-1.08
2023-01-27T19:38:44.963Z,-1.06
2023-01-27T19:41:13.149Z,-1.05
2023-01-27T19:43:42.252Z,-1.02
2023-01-27T19:46:16.357Z,-1.01
2023-01-27T19:48:44.749Z,-0.99
2023-01-27T19:51:13.432Z,-1.02
2023-01-27T19:53:41.610Z,-1.00
2023-01-27T19:56:22.641Z,-0.96
2023-01-27T19:58:53.717Z,-0.95
2023-01-27T20:01:24.927Z,-0.95
2023-01-27T20:03:54.664Z,-0.95
2023-01-27T20:06:26.250Z,-0.91
2023-01-27T20:08:56.376Z,-0.91
2023-01-27T20:11:42.081Z,-0.92
2023-01-27T20:14:16.282Z,-0.93
2023-01-27T20:16:45.092Z,-0.96
2023-01-27T20:19:17.647Z,-0.99
2023-01-27T20:21:47.061Z,-1.02
2023-01-27T20:24:17.573Z,-1.07
2023-01-27T20:26:46.417Z,-1.13
2023-01-27T20:29:15.190Z,-1.17
2023-01-27T20:31:43.917Z,-1.20
2023-01-27T20:34:12.253Z,-1.20
2023-01-27T20:36:40.844Z,-1.21
2023-01-27T20:39:09.226Z,-1.21
2023-01-27T20:41:37.408Z,-1.21
2023-01-27T20:44:05.894Z,-1.20
2023-01-27T20:46:34.990Z,-1.21
2023-01-27T20:49:03.184Z,-1.25
2023-01-27T20:51:31.765Z,-1.29
2023-01-27T20:54:00.908Z,-1.31
2023-01-27T20:56:29.347Z,-1.32
2023-01-27T20:58:57.937Z,-1.28
2023-01-27T21:01:26.778Z,-1.27
2023-01-27T21:03:55.116Z,-1.27
2023-01-27T21:06:23.603Z,-1.28
2023-01-27T21:08:51.787Z,-1.29
2023-01-27T21:11:21.528Z,-1.28
2023-01-27T21:13:51.729Z,-1.29
2023-01-27T21:16:20.547Z,-1.31
2023-01-27T21:18:49.314Z,-1.31
2023-01-27T21:21:28.653Z,-1.32
2023-01-27T21:24:00.105Z,-1.36
2023-01-27T21:26:28.490Z,-1.34
2023-01-27T21:28:57.586Z,-1.33
2023-01-27T21:31:30.402Z,-1.35
2023-01-27T21:34:00.333Z,-1.38
2023-01-27T21:36:28.983Z,-1.41
2023-01-27T21:38:57.980Z,-1.42
2023-01-27T21:41:44.909Z,-1.48
2023-01-27T21:44:39.897Z,-1.56
2023-01-27T21:47:11.745Z,-1.62
2023-01-27T21:50:01.817Z,-1.64
2023-01-27T21:52:36.767Z,-1.69
2023-01-27T21:55:08.528Z,-1.70
2023-01-27T21:57:37.206Z,-1.69
2023-01-27T22:00:07.765Z,-1.66
2023-01-27T22:02:42.834Z,-1.66
2023-01-27T22:05:12.761Z,-1.62
2023-01-27T22:07:41.908Z,-1.60
2023-01-27T22:10:18.687Z,-1.61
2023-01-27T22:12:47.283Z,-1.59
2023-01-27T22:15:17.598Z,-1.60
2023-01-27T22:17:46.741Z,-1.58
2023-01-27T22:20:16.334Z,-1.52
2023-01-27T22:22:45.732Z,-1.48
2023-01-27T22:25:16.065Z,-1.41
2023-01-27T22:27:44.739Z,-1.35
2023-01-27T22:30:16.710Z,-1.33
2023-01-27T22:32:46.278Z,-1.29
2023-01-27T22:35:16.540Z,-1.28
2023-01-27T22:37:45.511Z,-1.31
2023-01-27T22:40:16.450Z,-1.33
2023-01-27T22:42:45.176Z,-1.32
2023-01-27T22:45:14.098Z,-1.34
2023-01-27T22:47:43.065Z,-1.33
2023-01-27T22:50:12.021Z,-1.35
2023-01-27T22:52:40.257Z,-1.35
2023-01-27T22:55:10.780Z,-1.40
2023-01-27T22:57:39.272Z,-1.45
2023-01-27T23:00:09.552Z,-1.53
2023-01-27T23:02:37.928Z,-1.59
2023-01-27T23:05:07.288Z,-1.61
2023-01-27T23:07:35.465Z,-1.62
2023-01-27T23:10:04.143Z,-1.64
2023-01-27T23:12:32.344Z,-1.67
2023-01-27T23:15:02.667Z,-1.71
2023-01-27T23:17:30.849Z,-1.77
2023-01-27T23:19:59.021Z,-1.80
2023-01-27T23:22:27.305Z,-1.80
2023-01-27T23:24:55.793Z,-1.76
2023-01-27T23:27:24.791Z,-1.69
2023-01-27T23:29:53.175Z,-1.60
2023-01-27T23:32:21.663Z,-1.54
2023-01-27T23:34:50.535Z,-1.48
2023-01-27T23:37:18.843Z,-1.45
2023-01-27T23:39:49.762Z,-1.42
2023-01-27T23:42:18.779Z,-1.36
2023-01-27T23:44:47.368Z,-1.31
2023-01-27T23:47:17.090Z,-1.27
2023-01-27T23:49:45.471Z,-1.30
2023-01-27T23:52:13.856Z,-1.35
2023-01-27T23:54:42.237Z,-1.39
2023-01-27T23:57:11.069Z,-1.46
2023-01-27T23:59:41.379Z,-1.47
